createdAt,value
2017-08-11T00:01:55.767Z,99.90
2017-08-11T00:04:22.146Z,99.90
2017-08-11T00:06:48.532Z,99.90
2017-08-11T00:09:15.503Z,99.90
2017-08-11T00:11:42.696Z,99.90
2017-08-11T00:14:09.095Z,99.90
2017-08-11T00:16:35.515Z,99.90
2017-08-11T00:19:01.923Z,99.90
2017-08-11T00:21:28.360Z,99.90
2017-08-11T00:23:54.730Z,99.90
2017-08-11T00:26:21.107Z,99.90
2017-08-11T00:28:47.572Z,99.90
2017-08-11T00:31:13.967Z,99.90
2017-08-11T00:33:40.352Z,99.90
2017-08-11T00:36:06.767Z,99.90
2017-08-11T00:38:33.186Z,99.90
2017-08-11T00:40:59.592Z,99.90
2017-08-11T00:43:26.732Z,99.90
2017-08-11T00:45:53.900Z,99.90
2017-08-11T00:48:20.371Z,99.90
2017-08-11T00:50:46.763Z,99.90
2017-08-11T00:53:13.171Z,99.90
2017-08-11T00:55:40.319Z,99.70
2017-08-11T00:58:07.515Z,99.90
2017-08-11T01:00:34.007Z,99.90
2017-08-11T01:03:01.163Z,99.90
2017-08-11T01:05:28.347Z,99.90
2017-08-11T01:07:54.786Z,99.90
2017-08-11T01:10:21.196Z,99.90
2017-08-11T01:12:47.587Z,99.90
2017-08-11T01:15:13.963Z,99.90
2017-08-11T01:17:40.414Z,99.90
2017-08-11T01:20:06.834Z,99.90
2017-08-11T01:22:33.250Z,99.60
2017-08-11T01:24:59.640Z,99.90
2017-08-11T01:27:26.031Z,99.90
2017-08-11T01:29:52.506Z,99.90
2017-08-11T01:32:18.904Z,99.90
2017-08-11T01:34:45.295Z,99.90
2017-08-11T01:37:12.480Z,99.90
2017-08-11T01:39:38.939Z,99.90
2017-08-11T01:42:05.340Z,99.90
2017-08-11T01:44:31.762Z,99.90
2017-08-11T01:46:58.159Z,99.90
2017-08-11T01:49:24.605Z,99.90
2017-08-11T01:51:51.772Z,99.90
2017-08-11T01:54:18.932Z,99.90
2017-08-11T01:56:45.371Z,99.90
2017-08-11T01:59:11.887Z,99.90
2017-08-11T02:01:39.034Z,99.90
2017-08-11T02:04:06.200Z,99.90
2017-08-11T02:06:32.639Z,99.90
2017-08-11T02:08:59.076Z,99.90
2017-08-11T02:11:25.512Z,99.90
2017-08-11T02:13:51.927Z,99.90
2017-08-11T02:16:18.316Z,99.90
2017-08-11T02:18:44.856Z,99.90
2017-08-11T02:21:11.234Z,99.80
2017-08-11T02:23:37.675Z,99.90
2017-08-11T02:26:04.101Z,99.90
2017-08-11T02:28:30.548Z,99.90
2017-08-11T02:30:56.944Z,99.90
2017-08-11T02:33:24.083Z,99.90
2017-08-11T02:35:50.500Z,99.90
2017-08-11T02:38:16.899Z,99.90
2017-08-11T02:40:43.316Z,99.90
2017-08-11T02:43:09.719Z,99.90
2017-08-11T02:45:36.843Z,99.90
2017-08-11T02:48:03.591Z,99.90
2017-08-11T02:50:30.000Z,99.90
2017-08-11T02:52:56.387Z,99.90
2017-08-11T02:55:23.519Z,99.90
2017-08-11T02:57:49.932Z,99.90
2017-08-11T03:00:16.332Z,99.90
2017-08-11T03:02:42.731Z,99.90
2017-08-11T03:05:09.147Z,99.90
2017-08-11T03:07:36.276Z,99.90
2017-08-11T03:10:02.716Z,99.90
2017-08-11T03:12:29.118Z,99.90
2017-08-11T03:14:55.519Z,99.90
2017-08-11T03:17:21.986Z,99.90
2017-08-11T03:19:48.455Z,99.90
2017-08-11T03:22:14.899Z,99.90
2017-08-11T03:24:41.631Z,99.90
2017-08-11T03:27:08.134Z,99.90
2017-08-11T03:29:34.551Z,99.90
2017-08-11T03:32:00.947Z,99.90
2017-08-11T03:34:28.090Z,99.90
2017-08-11T03:36:55.216Z,99.90
2017-08-11T03:39:21.644Z,99.90
2017-08-11T03:41:48.032Z,99.90
2017-08-11T03:44:14.415Z,99.90
2017-08-11T03:46:40.843Z,99.90
2017-08-11T03:49:07.239Z,99.90
2017-08-11T03:51:33.647Z,99.90
2017-08-11T03:54:00.780Z,99.90
2017-08-11T03:56:27.939Z,99.90
2017-08-11T03:58:55.127Z,99.90
2017-08-11T04:01:21.512Z,99.90
2017-08-11T04:03:48.676Z,99.90
2017-08-11T04:06:15.815Z,99.90
2017-08-11T04:08:43.018Z,99.90
2017-08-11T04:11:09.431Z,99.90
2017-08-11T04:13:35.836Z,99.90
2017-08-11T04:16:02.994Z,99.90
2017-08-11T04:18:30.217Z,99.90
2017-08-11T04:20:56.654Z,99.90
2017-08-11T04:23:23.056Z,99.90
2017-08-11T04:25:49.447Z,99.90
2017-08-11T04:28:15.960Z,99.90
2017-08-11T04:30:42.375Z,99.90
2017-08-11T04:33:08.787Z,99.90
2017-08-11T04:35:35.204Z,99.20
2017-08-11T04:38:01.639Z,99.30
2017-08-11T04:40:28.104Z,99.80
2017-08-11T04:42:54.570Z,99.90
2017-08-11T04:45:21.136Z,99.90
2017-08-11T04:47:47.695Z,99.90
2017-08-11T04:50:14.255Z,99.90
2017-08-11T04:52:41.495Z,99.90
2017-08-11T04:55:08.758Z,99.90
2017-08-11T04:57:35.180Z,99.90
2017-08-11T05:00:01.619Z,99.90
2017-08-11T05:02:27.995Z,99.90
2017-08-11T05:04:54.403Z,99.90
2017-08-11T05:07:21.535Z,99.90
2017-08-11T05:09:47.966Z,99.80
2017-08-11T05:12:14.392Z,99.90
2017-08-11T05:14:40.763Z,99.80
2017-08-11T05:17:07.915Z,99.50
2017-08-11T05:19:35.146Z,99.50
2017-08-11T05:22:01.523Z,99.50
2017-08-11T05:24:27.918Z,99.30
2017-08-11T05:26:54.327Z,99.90
2017-08-11T05:29:20.728Z,99.90
2017-08-11T05:31:47.200Z,99.90
2017-08-11T05:34:13.625Z,99.90
2017-08-11T05:36:40.056Z,99.90
2017-08-11T05:39:06.460Z,99.90
2017-08-11T05:41:32.896Z,99.90
2017-08-11T05:43:59.291Z,99.90
2017-08-11T05:46:26.411Z,99.90
2017-08-11T05:48:52.822Z,99.90
2017-08-11T05:51:19.559Z,99.90
2017-08-11T05:53:45.955Z,99.90
2017-08-11T05:56:12.338Z,99.90
2017-08-11T05:58:38.763Z,99.90
2017-08-11T06:01:05.198Z,99.90
2017-08-11T06:03:31.612Z,99.90
2017-08-11T06:05:58.047Z,99.90
2017-08-11T06:08:24.480Z,99.90
2017-08-11T06:10:51.054Z,99.90
2017-08-11T06:13:18.235Z,99.90
2017-08-11T06:15:44.608Z,99.90
2017-08-11T06:18:11.152Z,99.80
2017-08-11T06:20:37.555Z,99.90
2017-08-11T06:23:03.939Z,99.90
2017-08-11T06:25:30.347Z,99.90
2017-08-11T06:27:56.780Z,99.90
2017-08-11T06:30:23.152Z,99.90
2017-08-11T06:32:50.306Z,99.90
2017-08-11T06:35:16.703Z,99.90
2017-08-11T06:37:43.075Z,99.90
2017-08-11T06:40:09.546Z,99.90
2017-08-11T06:42:35.928Z,99.90
2017-08-11T06:45:03.101Z,99.90
2017-08-11T06:47:29.520Z,99.90
2017-08-11T06:49:56.708Z,99.90
2017-08-11T06:52:23.128Z,99.90
2017-08-11T06:54:49.516Z,99.90
2017-08-11T06:57:15.908Z,99.90
2017-08-11T06:59:42.362Z,99.90
2017-08-11T07:02:08.768Z,99.90
2017-08-11T07:04:35.152Z,99.90
2017-08-11T07:07:02.300Z,99.90
2017-08-11T07:09:29.500Z,99.90
2017-08-11T07:11:55.888Z,99.90
2017-08-11T07:14:22.352Z,99.90
2017-08-11T07:16:48.767Z,99.90
2017-08-11T07:19:15.238Z,99.90
2017-08-11T07:21:41.655Z,99.30
2017-08-11T07:24:08.047Z,98.40
2017-08-11T07:26:35.190Z,98.20
2017-08-11T07:29:01.668Z,98.20
2017-08-11T07:31:28.092Z,98.00
2017-08-11T07:33:54.519Z,97.80
2017-08-11T07:36:20.940Z,97.00
2017-08-11T07:38:47.475Z,97.40
2017-08-11T07:41:14.624Z,95.80
2017-08-11T07:43:41.788Z,94.60
2017-08-11T07:46:08.214Z,94.60
2017-08-11T07:48:35.455Z,93.60
2017-08-11T07:51:02.587Z,95.30
2017-08-11T07:53:29.035Z,95.30
2017-08-11T07:55:56.159Z,96.40
2017-08-11T07:58:22.559Z,96.40
2017-08-11T08:00:48.964Z,96.40
2017-08-11T08:03:15.348Z,96.30
2017-08-11T08:05:41.730Z,96.30
2017-08-11T08:08:08.192Z,96.00
2017-08-11T08:10:34.590Z,95.40
2017-08-11T08:13:01.023Z,95.30
2017-08-11T08:15:28.188Z,96.30
2017-08-11T08:17:54.555Z,96.20
2017-08-11T08:20:20.942Z,96.10
2017-08-11T08:22:47.442Z,96.40
2017-08-11T08:25:14.380Z,95.80
2017-08-11T08:27:41.708Z,92.80
2017-08-11T08:30:08.124Z,92.80
2017-08-11T08:32:34.780Z,94.40
2017-08-11T08:35:02.008Z,92.70
2017-08-11T08:37:28.623Z,92.70
2017-08-11T08:39:55.847Z,92.00
2017-08-11T08:42:22.239Z,92.00
2017-08-11T08:44:48.856Z,91.60
2017-08-11T08:47:15.255Z,92.30
2017-08-11T08:49:41.754Z,92.20
2017-08-11T08:52:08.135Z,91.70
2017-08-11T08:54:35.287Z,92.20
2017-08-11T08:57:03.392Z,90.00
2017-08-11T08:59:30.308Z,89.60
2017-08-11T09:01:57.064Z,87.80
2017-08-11T09:04:23.681Z,90.20
2017-08-11T09:06:50.112Z,90.00
2017-08-11T09:09:17.696Z,90.60
2017-08-11T09:11:44.376Z,90.10
2017-08-11T09:14:10.807Z,90.20
2017-08-11T09:16:37.341Z,88.50
2017-08-11T09:19:04.060Z,89.30
2017-08-11T09:21:30.511Z,90.10
2017-08-11T09:23:56.911Z,89.40
2017-08-11T09:26:35.616Z,89.10
2017-08-11T09:29:14.168Z,89.60
2017-08-11T09:31:52.935Z,88.40
2017-08-11T09:34:32.365Z,88.70
2017-08-11T09:37:00.040Z,86.60
2017-08-11T09:39:27.231Z,85.60
2017-08-11T09:41:53.648Z,85.60
2017-08-11T09:44:20.054Z,84.10
2017-08-11T09:46:46.471Z,85.40
2017-08-11T09:49:13.699Z,86.20
2017-08-11T09:51:41.120Z,86.30
2017-08-11T09:54:07.922Z,85.70
2017-08-11T09:56:35.106Z,86.90
2017-08-11T09:59:02.295Z,85.60
2017-08-11T10:01:29.079Z,85.60
2017-08-11T10:03:55.567Z,86.50
2017-08-11T10:06:21.966Z,86.90
2017-08-11T10:08:49.167Z,87.60
2017-08-11T10:11:15.599Z,87.60
2017-08-11T10:13:42.031Z,84.10
2017-08-11T10:16:09.014Z,82.90
2017-08-11T10:18:36.320Z,84.90
2017-08-11T10:21:03.259Z,84.10
2017-08-11T10:23:29.869Z,83.20
2017-08-11T10:25:56.324Z,80.80
2017-08-11T10:28:23.323Z,82.60
2017-08-11T10:30:50.295Z,81.30
2017-08-11T10:33:16.907Z,82.40
2017-08-11T10:35:44.415Z,82.50
2017-08-11T10:44:39.838Z,85.30
2017-08-11T10:47:06.239Z,87.30
2017-08-11T10:49:32.733Z,82.90
2017-08-11T10:51:59.152Z,83.40
2017-08-11T10:54:25.532Z,84.10
2017-08-11T10:56:51.952Z,85.00
2017-08-11T10:59:18.364Z,86.10
2017-08-11T11:01:44.776Z,84.70
2017-08-11T11:04:11.190Z,86.80
2017-08-11T11:06:37.820Z,83.90
2017-08-11T11:09:05.144Z,82.70
2017-08-11T11:11:31.526Z,82.60
2017-08-11T11:13:58.652Z,83.80
2017-08-11T11:16:25.800Z,84.90
2017-08-11T11:18:52.298Z,84.90
2017-08-11T11:21:18.726Z,81.80
2017-08-11T11:23:45.130Z,84.70
2017-08-11T11:26:11.511Z,84.20
2017-08-11T11:28:37.919Z,82.60
2017-08-11T11:31:04.360Z,84.70
2017-08-11T11:33:30.747Z,85.20
2017-08-11T11:35:57.163Z,81.40
2017-08-11T11:38:23.651Z,82.00
2017-08-11T11:40:50.079Z,81.90
2017-08-11T11:43:17.541Z,84.70
2017-08-11T11:45:44.026Z,83.60
2017-08-11T11:48:11.235Z,85.00
2017-08-11T11:50:37.615Z,85.10
2017-08-11T11:53:04.764Z,85.10
2017-08-11T11:55:31.882Z,85.70
2017-08-11T11:57:58.256Z,84.90
2017-08-11T12:00:24.671Z,84.60
2017-08-11T12:02:52.055Z,81.40
2017-08-11T12:05:18.463Z,82.30
2017-08-11T12:07:45.602Z,85.20
2017-08-11T12:10:12.083Z,85.00
2017-08-11T12:12:38.487Z,86.60
2017-08-11T12:15:05.647Z,87.90
2017-08-11T12:17:32.031Z,87.90
2017-08-11T12:19:58.540Z,86.40
2017-08-11T12:22:24.978Z,84.00
2017-08-11T12:24:58.199Z,83.50
2017-08-11T12:27:24.580Z,82.20
2017-08-11T12:29:51.054Z,81.40
2017-08-11T12:32:17.432Z,80.60
2017-08-11T12:34:43.849Z,78.40
2017-08-11T12:37:11.863Z,76.40
2017-08-11T12:39:38.776Z,76.40
2017-08-11T12:42:05.232Z,77.40
2017-08-11T12:44:31.599Z,68.20
2017-08-11T12:46:58.027Z,69.40
2017-08-11T12:49:24.469Z,72.10
2017-08-11T12:51:51.652Z,66.50
2017-08-11T12:54:18.787Z,66.20
2017-08-11T12:56:45.255Z,66.10
2017-08-11T12:59:11.735Z,68.70
2017-08-11T13:01:38.123Z,70.00
2017-08-11T13:04:04.536Z,70.70
2017-08-11T13:06:31.687Z,71.60
2017-08-11T13:08:58.195Z,71.50
2017-08-11T13:11:24.688Z,70.40
2017-08-11T13:13:51.132Z,71.30
2017-08-11T13:16:17.571Z,71.90
2017-08-11T13:18:44.019Z,68.00
2017-08-11T13:21:10.500Z,64.70
2017-08-11T13:23:36.907Z,65.50
2017-08-11T13:26:03.387Z,66.20
2017-08-11T13:28:30.883Z,66.70
2017-08-11T13:30:57.868Z,66.00
2017-08-11T13:33:24.424Z,65.20
2017-08-11T13:35:50.808Z,66.10
2017-08-11T13:38:17.332Z,63.90
2017-08-11T13:40:43.744Z,62.60
2017-08-11T13:43:10.155Z,64.60
2017-08-11T13:45:36.555Z,63.20
2017-08-11T13:48:03.774Z,62.80
2017-08-11T13:50:30.200Z,62.80
2017-08-11T13:52:56.582Z,62.40
2017-08-11T13:55:22.979Z,65.00
2017-08-11T13:57:49.427Z,66.10
2017-08-11T14:00:15.944Z,71.20
2017-08-11T14:02:42.331Z,69.40
2017-08-11T14:05:08.756Z,70.20
2017-08-11T14:07:35.140Z,70.40
2017-08-11T14:10:01.536Z,68.00
2017-08-11T14:12:27.943Z,68.90
2017-08-11T14:14:54.349Z,70.00
2017-08-11T14:17:20.736Z,67.60
2017-08-11T14:19:47.181Z,66.90
2017-08-11T14:22:13.639Z,63.00
2017-08-11T14:24:46.134Z,64.30
2017-08-11T14:27:12.519Z,64.20
2017-08-11T14:29:38.956Z,63.50
2017-08-11T14:32:05.385Z,62.60
2017-08-11T14:34:31.779Z,59.80
2017-08-11T14:36:58.195Z,63.80
2017-08-11T14:39:25.400Z,63.50
2017-08-11T14:41:51.775Z,63.50
2017-08-11T14:44:18.942Z,70.70
2017-08-11T14:46:46.093Z,72.70
2017-08-11T14:49:12.584Z,72.70
2017-08-11T14:51:38.967Z,66.20
2017-08-11T14:54:05.379Z,73.20
2017-08-11T14:56:32.536Z,67.10
2017-08-11T14:58:59.716Z,66.50
2017-08-11T15:01:26.132Z,66.40
2017-08-11T15:03:52.491Z,66.80
2017-08-11T15:06:18.872Z,66.30
2017-08-11T15:08:45.379Z,65.60
2017-08-11T15:11:11.795Z,64.10
2017-08-11T15:13:38.218Z,65.70
2017-08-11T15:16:04.631Z,64.70
2017-08-11T15:18:31.079Z,65.20
2017-08-11T15:20:57.491Z,64.50
2017-08-11T15:23:23.891Z,65.30
2017-08-11T15:25:50.293Z,64.30
2017-08-11T15:28:16.704Z,64.80
2017-08-11T15:30:43.091Z,70.00
2017-08-11T15:33:09.478Z,70.70
2017-08-11T15:35:35.871Z,69.30
2017-08-11T15:38:03.071Z,73.80
2017-08-11T15:40:36.543Z,73.70
2017-08-11T15:43:02.967Z,72.20
2017-08-11T15:45:29.344Z,73.70
2017-08-11T15:47:55.770Z,73.60
2017-08-11T15:50:22.158Z,72.80
2017-08-11T15:52:48.545Z,72.70
2017-08-11T15:55:14.962Z,73.60
2017-08-11T15:57:41.368Z,71.40
2017-08-11T16:00:07.849Z,73.40
2017-08-11T16:02:34.311Z,76.90
2017-08-11T16:05:00.711Z,75.10
2017-08-11T16:07:27.136Z,74.70
2017-08-11T16:09:53.587Z,75.00
2017-08-11T16:12:20.005Z,77.40
2017-08-11T16:14:46.419Z,77.20
2017-08-11T16:17:12.881Z,76.70
2017-08-11T16:19:39.327Z,77.40
2017-08-11T16:22:05.727Z,77.80
2017-08-11T16:24:32.152Z,79.40
2017-08-11T16:26:58.606Z,80.20
2017-08-11T16:29:25.021Z,81.20
2017-08-11T16:31:51.468Z,82.40
2017-08-11T16:34:17.895Z,83.90
2017-08-11T16:36:44.315Z,85.00
2017-08-11T16:39:10.747Z,86.10
2017-08-11T16:41:37.588Z,85.60
2017-08-11T16:44:04.408Z,85.50
2017-08-11T16:46:30.843Z,85.90
2017-08-11T16:48:57.286Z,86.60
2017-08-11T16:51:23.679Z,87.40
2017-08-11T16:53:50.081Z,86.90
2017-08-11T16:56:16.460Z,87.20
2017-08-11T16:58:43.659Z,87.30
2017-08-11T17:01:10.095Z,87.30
2017-08-11T17:03:36.486Z,87.90
2017-08-11T17:06:02.911Z,87.10
2017-08-11T17:08:29.369Z,86.70
2017-08-11T17:10:55.774Z,86.70
2017-08-11T17:13:22.241Z,86.30
2017-08-11T17:15:48.700Z,87.90
2017-08-11T17:18:15.114Z,88.60
2017-08-11T17:20:41.500Z,89.30
2017-08-11T17:23:08.660Z,90.20
2017-08-11T17:25:35.058Z,90.20
2017-08-11T17:28:01.470Z,90.20
2017-08-11T17:30:27.851Z,90.30
2017-08-11T17:32:54.233Z,90.40
2017-08-11T17:35:20.655Z,90.40
2017-08-11T17:37:47.032Z,90.30
2017-08-11T17:40:14.260Z,90.70
2017-08-11T17:42:40.729Z,90.30
2017-08-11T17:45:07.139Z,90.50
2017-08-11T17:47:33.547Z,90.70
2017-08-11T17:49:59.975Z,90.60
2017-08-11T17:52:26.359Z,91.00
2017-08-11T17:54:53.502Z,90.80
2017-08-11T17:57:20.642Z,90.90
2017-08-11T17:59:47.845Z,90.90
2017-08-11T18:02:14.235Z,90.90
2017-08-11T18:04:41.392Z,91.00
2017-08-11T18:07:07.772Z,91.00
2017-08-11T18:09:34.227Z,91.30
2017-08-11T18:12:00.681Z,91.40
2017-08-11T18:14:27.256Z,91.30
2017-08-11T18:16:53.683Z,91.60
2017-08-11T18:19:20.112Z,91.30
2017-08-11T18:21:46.504Z,91.70
2017-08-11T18:24:12.906Z,91.90
2017-08-11T18:26:39.287Z,92.10
2017-08-11T18:29:06.419Z,91.90
2017-08-11T18:31:32.808Z,91.90
2017-08-11T18:33:59.191Z,92.00
2017-08-11T18:36:26.359Z,92.60
2017-08-11T18:38:54.579Z,91.70
2017-08-11T18:41:20.988Z,91.90
2017-08-11T18:43:48.163Z,92.20
2017-08-11T18:46:14.553Z,92.50
2017-08-11T18:48:41.023Z,92.70
2017-08-11T18:51:07.395Z,93.00
2017-08-11T18:53:33.820Z,93.20
2017-08-11T18:56:00.203Z,93.10
2017-08-11T18:58:27.412Z,93.10
2017-08-11T19:00:54.554Z,93.40
2017-08-11T19:03:20.947Z,93.40
2017-08-11T19:05:47.327Z,93.80
2017-08-11T19:08:14.526Z,94.20
2017-08-11T19:10:40.911Z,94.20
2017-08-11T19:13:08.031Z,94.30
2017-08-11T19:15:34.427Z,94.20
2017-08-11T19:18:00.844Z,93.90
2017-08-11T19:20:27.272Z,93.80
2017-08-11T19:22:53.655Z,93.80
2017-08-11T19:25:20.083Z,93.80
2017-08-11T19:27:46.512Z,94.00
2017-08-11T19:30:12.928Z,94.20
2017-08-11T19:32:39.347Z,94.40
2017-08-11T19:35:05.728Z,94.60
2017-08-11T19:37:32.127Z,94.80
2017-08-11T19:39:58.553Z,94.90
2017-08-11T19:42:24.955Z,94.90
2017-08-11T19:44:52.100Z,94.60
2017-08-11T19:47:19.237Z,94.70
2017-08-11T19:49:45.746Z,94.70
2017-08-11T19:52:12.123Z,94.80
2017-08-11T19:54:39.251Z,94.80
2017-08-11T19:57:05.654Z,94.80
2017-08-11T19:59:32.064Z,94.60
2017-08-11T20:01:58.451Z,94.70
2017-08-11T20:04:24.860Z,94.80
2017-08-11T20:06:51.223Z,94.90
2017-08-11T20:09:18.429Z,94.50
2017-08-11T20:11:44.824Z,94.70
2017-08-11T20:14:11.199Z,94.80
2017-08-11T20:16:37.600Z,94.80
2017-08-11T20:19:04.044Z,94.90
2017-08-11T20:21:30.443Z,94.90
2017-08-11T20:23:56.896Z,95.20
2017-08-11T20:26:23.308Z,95.10
2017-08-11T20:28:49.797Z,95.30
2017-08-11T20:31:16.199Z,95.20
2017-08-11T20:33:42.623Z,95.30
2017-08-11T20:36:09.039Z,95.40
2017-08-11T20:38:36.233Z,95.20
2017-08-11T20:41:02.647Z,95.20
2017-08-11T20:43:29.024Z,95.60
2017-08-11T20:45:55.439Z,95.20
2017-08-11T20:48:21.856Z,95.30
2017-08-11T20:50:48.251Z,95.30
2017-08-11T20:53:15.371Z,93.60
2017-08-11T20:55:41.899Z,93.60
2017-08-11T20:58:08.432Z,93.30
2017-08-11T21:00:34.811Z,92.00
2017-08-11T21:03:01.204Z,91.60
2017-08-11T21:05:34.759Z,91.10
2017-08-11T21:08:01.142Z,91.20
2017-08-11T21:10:27.515Z,90.80
2017-08-11T21:12:53.915Z,90.90
2017-08-11T21:15:20.286Z,89.80
2017-08-11T21:17:46.690Z,86.00
2017-08-11T21:20:13.879Z,87.20
2017-08-11T21:22:40.289Z,86.50
2017-08-11T21:25:06.822Z,86.00
2017-08-11T21:27:33.251Z,86.90
2017-08-11T21:30:00.471Z,83.70
2017-08-11T21:32:27.659Z,84.80
2017-08-11T21:34:54.052Z,84.00
2017-08-11T21:37:20.443Z,85.60
2017-08-11T21:39:46.912Z,84.20
2017-08-11T21:42:13.288Z,84.00
2017-08-11T21:44:46.918Z,86.10
2017-08-11T21:47:13.332Z,83.00
2017-08-11T21:49:39.794Z,83.60
2017-08-11T21:52:06.164Z,82.20
2017-08-11T21:54:33.311Z,85.50
2017-08-11T21:56:59.717Z,85.20
2017-08-11T21:59:26.126Z,84.90
2017-08-11T22:01:52.530Z,84.70
2017-08-11T22:04:18.923Z,85.40
2017-08-11T22:06:45.274Z,85.20
2017-08-11T22:09:11.783Z,85.40
2017-08-11T22:11:38.146Z,85.40
2017-08-11T22:14:05.299Z,86.80
2017-08-11T22:16:32.430Z,88.90
2017-08-11T22:18:58.826Z,87.90
2017-08-11T22:21:25.222Z,87.90
2017-08-11T22:23:51.639Z,87.80
2017-08-11T22:26:18.051Z,88.10
2017-08-11T22:28:44.471Z,88.10
2017-08-11T22:31:10.871Z,88.00
2017-08-11T22:33:37.244Z,88.30
2017-08-11T22:36:03.627Z,88.30
2017-08-11T22:38:30.112Z,88.70
2017-08-11T22:40:56.534Z,89.60
2017-08-11T22:43:22.900Z,90.10
2017-08-11T22:45:50.021Z,91.60
2017-08-11T22:48:16.459Z,91.60
2017-08-11T22:50:42.854Z,91.70
2017-08-11T22:53:09.240Z,92.00
2017-08-11T22:55:35.643Z,92.30
2017-08-11T22:58:02.036Z,92.10
2017-08-11T23:00:28.420Z,92.00
2017-08-11T23:02:54.808Z,92.40
2017-08-11T23:05:21.195Z,92.50
2017-08-11T23:07:47.580Z,92.60
2017-08-11T23:10:14.011Z,92.40
2017-08-11T23:12:41.367Z,92.50
2017-08-11T23:15:07.789Z,92.30
2017-08-11T23:17:34.191Z,92.80
2017-08-11T23:20:01.371Z,92.20
2017-08-11T23:22:27.783Z,92.50
2017-08-11T23:24:54.928Z,93.20
2017-08-11T23:27:22.089Z,93.30
2017-08-11T23:29:49.292Z,93.50
2017-08-11T23:32:15.671Z,93.50
2017-08-11T23:34:42.055Z,93.40
2017-08-11T23:37:08.458Z,93.50
2017-08-11T23:39:34.884Z,93.50
2017-08-11T23:42:01.247Z,93.30
2017-08-11T23:44:27.655Z,93.40
2017-08-11T23:46:54.036Z,94.00
2017-08-11T23:49:20.439Z,94.30
2017-08-11T23:51:46.843Z,94.70
2017-08-11T23:54:13.217Z,95.10
2017-08-11T23:56:39.611Z,95.10
2017-08-11T23:59:06.063Z,95.00
